sensor_id;sensor_type;location;lat;lon;timestamp;P1;durP1;ratioP1;P2;durP2;ratioP2
1024;SDS011;501;48.214;11.350;2022-09-09T00:02:22;5.53;;;2.13;;
1024;SDS011;501;48.214;11.350;2022-09-09T00:04:58;2.40;;;2.03;;
1024;SDS011;501;48.214;11.350;2022-09-09T00:10:18;2.20;;;2.00;;
1024;SDS011;501;48.214;11.350;2022-09-09T00:13:16;1.80;;;1.70;;
1024;SDS011;501;48.214;11.350;2022-09-09T00:18:17;1.70;;;1.60;;
1024;SDS011;501;48.214;11.350;2022-09-09T00:21:03;3.20;;;2.50;;
1024;SDS011;501;48.214;11.350;2022-09-09T00:31:37;1.70;;;1.57;;
1024;SDS011;501;48.214;11.350;2022-09-09T00:34:13;2.03;;;1.60;;
1024;SDS011;501;48.214;11.350;2022-09-09T00:36:42;3.03;;;1.80;;
1024;SDS011;501;48.214;11.350;2022-09-09T00:44:56;2.20;;;2.00;;
1024;SDS011;501;48.214;11.350;2022-09-09T00:47:39;1.87;;;1.77;;
1024;SDS011;501;48.214;11.350;2022-09-09T00:55:30;2.90;;;2.03;;
1024;SDS011;501;48.214;11.350;2022-09-09T00:58:08;2.50;;;2.30;;
1024;SDS011;501;48.214;11.350;2022-09-09T01:00:44;5.60;;;2.20;;
1024;SDS011;501;48.214;11.350;2022-09-09T01:03:30;8.60;;;2.60;;
1024;SDS011;501;48.214;11.350;2022-09-09T01:11:21;4.17;;;1.70;;
1024;SDS011;501;48.214;11.350;2022-09-09T01:14:00;2.23;;;2.03;;
1024;SDS011;501;48.214;11.350;2022-09-09T01:16:34;2.07;;;1.90;;
1024;SDS011;501;48.214;11.350;2022-09-09T01:19:01;2.67;;;2.20;;
1024;SDS011;501;48.214;11.350;2022-09-09T01:24:27;4.60;;;2.03;;
1024;SDS011;501;48.214;11.350;2022-09-09T01:27:04;2.27;;;2.07;;
1024;SDS011;501;48.214;11.350;2022-09-09T01:29:31;3.17;;;2.30;;
1024;SDS011;501;48.214;11.350;2022-09-09T01:31:58;3.00;;;2.20;;
1024;SDS011;501;48.214;11.350;2022-09-09T01:34:28;10.27;;;2.77;;
1024;SDS011;501;48.214;11.350;2022-09-09T01:37:02;2.10;;;1.73;;
1024;SDS011;501;48.214;11.350;2022-09-09T01:39:32;2.50;;;2.30;;
1024;SDS011;501;48.214;11.350;2022-09-09T01:42:02;4.33;;;2.40;;
1024;SDS011;501;48.214;11.350;2022-09-09T01:44:29;4.47;;;2.80;;
1024;SDS011;501;48.214;11.350;2022-09-09T01:46:56;1.93;;;1.83;;
1024;SDS011;501;48.214;11.350;2022-09-09T01:49:21;4.07;;;2.20;;
1024;SDS011;501;48.214;11.350;2022-09-09T01:51:49;2.80;;;2.00;;
1024;SDS011;501;48.214;11.350;2022-09-09T01:54:17;3.63;;;2.23;;
1024;SDS011;501;48.214;11.350;2022-09-09T01:56:57;3.30;;;2.10;;
1024;SDS011;501;48.214;11.350;2022-09-09T02:04:49;2.80;;;2.10;;
1024;SDS011;501;48.214;11.350;2022-09-09T02:10:10;6.00;;;1.90;;
1024;SDS011;501;48.214;11.350;2022-09-09T02:12:40;4.13;;;2.33;;
1024;SDS011;501;48.214;11.350;2022-09-09T02:15:19;5.20;;;2.00;;
1024;SDS011;501;48.214;11.350;2022-09-09T02:17:57;2.70;;;2.50;;
1024;SDS011;501;48.214;11.350;2022-09-09T02:20:26;2.97;;;2.00;;
1024;SDS011;501;48.214;11.350;2022-09-09T02:22:55;2.40;;;2.20;;
1024;SDS011;501;48.214;11.350;2022-09-09T02:25:22;2.40;;;2.20;;
1024;SDS011;501;48.214;11.350;2022-09-09T02:27:50;4.83;;;2.10;;
1024;SDS011;501;48.214;11.350;2022-09-09T02:30:17;2.43;;;2.23;;
1024;SDS011;501;48.214;11.350;2022-09-09T02:32:43;2.33;;;2.00;;
1024;SDS011;501;48.214;11.350;2022-09-09T02:35:13;6.30;;;2.10;;
1024;SDS011;501;48.214;11.350;2022-09-09T02:37:41;3.80;;;2.10;;
1024;SDS011;501;48.214;11.350;2022-09-09T02:40:09;3.03;;;2.30;;
1024;SDS011;501;48.214;11.350;2022-09-09T02:42:39;2.27;;;2.17;;
1024;SDS011;501;48.214;11.350;2022-09-09T02:45:06;2.77;;;2.57;;
1024;SDS011;501;48.214;11.350;2022-09-09T02:53:00;2.67;;;2.20;;
1024;SDS011;501;48.214;11.350;2022-09-09T02:55:48;3.20;;;2.10;;
1024;SDS011;501;48.214;11.350;2022-09-09T02:58:25;5.50;;;1.93;;
1024;SDS011;501;48.214;11.350;2022-09-09T03:00:51;2.20;;;2.00;;
1024;SDS011;501;48.214;11.350;2022-09-09T03:03:18;4.50;;;2.20;;
1024;SDS011;501;48.214;11.350;2022-09-09T03:05:45;2.37;;;2.03;;
1024;SDS011;501;48.214;11.350;2022-09-09T03:08:11;2.97;;;2.00;;
1024;SDS011;501;48.214;11.350;2022-09-09T03:10:38;1.93;;;1.73;;
1024;SDS011;501;48.214;11.350;2022-09-09T03:13:03;2.60;;;2.07;;
1024;SDS011;501;48.214;11.350;2022-09-09T03:15:30;3.67;;;2.17;;
1024;SDS011;501;48.214;11.350;2022-09-09T03:17:59;2.93;;;2.10;;
1024;SDS011;501;48.214;11.350;2022-09-09T03:20:26;2.30;;;1.90;;
1024;SDS011;501;48.214;11.350;2022-09-09T03:22:53;2.97;;;1.70;;
1024;SDS011;501;48.214;11.350;2022-09-09T03:25:20;1.73;;;1.63;;
1024;SDS011;501;48.214;11.350;2022-09-09T03:27:48;6.27;;;2.17;;
1024;SDS011;501;48.214;11.350;2022-09-09T03:30:14;2.40;;;2.00;;
1024;SDS011;501;48.214;11.350;2022-09-09T03:32:40;3.50;;;2.00;;
1024;SDS011;501;48.214;11.350;2022-09-09T03:35:06;2.47;;;1.80;;
1024;SDS011;501;48.214;11.350;2022-09-09T03:37:32;3.03;;;2.27;;
1024;SDS011;501;48.214;11.350;2022-09-09T03:39:58;4.50;;;2.00;;
1024;SDS011;501;48.214;11.350;2022-09-09T03:42:24;2.53;;;2.00;;
1024;SDS011;501;48.214;11.350;2022-09-09T03:44:50;2.33;;;2.07;;
1024;SDS011;501;48.214;11.350;2022-09-09T03:47:20;2.50;;;2.30;;
1024;SDS011;501;48.214;11.350;2022-09-09T03:49:46;2.20;;;2.00;;
1024;SDS011;501;48.214;11.350;2022-09-09T03:52:13;1.83;;;1.73;;
1024;SDS011;501;48.214;11.350;2022-09-09T03:54:39;2.30;;;2.10;;
1024;SDS011;501;48.214;11.350;2022-09-09T03:57:06;2.27;;;2.00;;
1024;SDS011;501;48.214;11.350;2022-09-09T03:59:31;2.20;;;2.10;;
1024;SDS011;501;48.214;11.350;2022-09-09T04:01:57;4.37;;;2.00;;
1024;SDS011;501;48.214;11.350;2022-09-09T04:04:24;2.73;;;2.07;;
1024;SDS011;501;48.214;11.350;2022-09-09T04:06:50;3.70;;;1.77;;
1024;SDS011;501;48.214;11.350;2022-09-09T04:09:16;2.10;;;1.97;;
1024;SDS011;501;48.214;11.350;2022-09-09T04:11:42;2.80;;;1.90;;
1024;SDS011;501;48.214;11.350;2022-09-09T04:14:07;2.13;;;2.03;;
1024;SDS011;501;48.214;11.350;2022-09-09T04:16:33;2.90;;;1.83;;
1024;SDS011;501;48.214;11.350;2022-09-09T04:19:02;2.73;;;1.87;;
1024;SDS011;501;48.214;11.350;2022-09-09T04:21:29;3.20;;;1.70;;
1024;SDS011;501;48.214;11.350;2022-09-09T04:23:55;2.60;;;2.00;;
1024;SDS011;501;48.214;11.350;2022-09-09T04:26:21;2.20;;;1.90;;
1024;SDS011;501;48.214;11.350;2022-09-09T04:28:47;2.00;;;1.90;;
1024;SDS011;501;48.214;11.350;2022-09-09T04:31:15;3.47;;;2.00;;
1024;SDS011;501;48.214;11.350;2022-09-09T04:33:43;3.60;;;1.90;;
1024;SDS011;501;48.214;11.350;2022-09-09T04:36:09;8.60;;;1.80;;
1024;SDS011;501;48.214;11.350;2022-09-09T04:38:35;1.67;;;1.57;;
1024;SDS011;501;48.214;11.350;2022-09-09T04:41:01;1.50;;;1.40;;
1024;SDS011;501;48.214;11.350;2022-09-09T04:43:26;2.50;;;1.70;;
1024;SDS011;501;48.214;11.350;2022-09-09T04:45:52;3.53;;;1.90;;
1024;SDS011;501;48.214;11.350;2022-09-09T04:48:18;1.90;;;1.80;;
1024;SDS011;501;48.214;11.350;2022-09-09T04:50:53;3.83;;;1.73;;
1024;SDS011;501;48.214;11.350;2022-09-09T04:53:31;3.20;;;1.70;;
1024;SDS011;501;48.214;11.350;2022-09-09T04:56:05;2.00;;;1.80;;
1024;SDS011;501;48.214;11.350;2022-09-09T04:58:31;2.63;;;2.00;;
1024;SDS011;501;48.214;11.350;2022-09-09T05:01:07;2.67;;;1.93;;
1024;SDS011;501;48.214;11.350;2022-09-09T05:03:37;3.77;;;1.70;;
1024;SDS011;501;48.214;11.350;2022-09-09T05:06:04;1.70;;;1.60;;
1024;SDS011;501;48.214;11.350;2022-09-09T05:08:35;2.07;;;1.80;;
1024;SDS011;501;48.214;11.350;2022-09-09T05:11:02;2.70;;;1.80;;
1024;SDS011;501;48.214;11.350;2022-09-09T05:13:28;1.80;;;1.70;;
1024;SDS011;501;48.214;11.350;2022-09-09T05:15:56;2.03;;;1.70;;
1024;SDS011;501;48.214;11.350;2022-09-09T05:18:22;5.70;;;1.90;;
1024;SDS011;501;48.214;11.350;2022-09-09T05:20:50;3.70;;;2.30;;
1024;SDS011;501;48.214;11.350;2022-09-09T05:23:17;2.90;;;2.03;;
1024;SDS011;501;48.214;11.350;2022-09-09T05:25:42;5.50;;;1.80;;
1024;SDS011;501;48.214;11.350;2022-09-09T05:28:08;4.30;;;2.07;;
1024;SDS011;501;48.214;11.350;2022-09-09T05:30:34;4.00;;;1.90;;
1024;SDS011;501;48.214;11.350;2022-09-09T05:32:59;4.10;;;1.67;;
1024;SDS011;501;48.214;11.350;2022-09-09T05:35:25;5.07;;;4.67;;
1024;SDS011;501;48.214;11.350;2022-09-09T05:37:51;3.93;;;2.17;;
1024;SDS011;501;48.214;11.350;2022-09-09T05:40:17;2.17;;;1.97;;
1024;SDS011;501;48.214;11.350;2022-09-09T05:42:42;2.20;;;2.00;;
1024;SDS011;501;48.214;11.350;2022-09-09T05:45:08;1.77;;;1.67;;
1024;SDS011;501;48.214;11.350;2022-09-09T05:47:34;3.30;;;3.10;;
1024;SDS011;501;48.214;11.350;2022-09-09T05:50:02;3.63;;;2.90;;
1024;SDS011;501;48.214;11.350;2022-09-09T05:52:28;2.67;;;2.40;;
1024;SDS011;501;48.214;11.350;2022-09-09T05:54:54;2.50;;;1.90;;
1024;SDS011;501;48.214;11.350;2022-09-09T05:57:20;4.27;;;2.20;;
1024;SDS011;501;48.214;11.350;2022-09-09T05:59:45;2.27;;;2.00;;
1024;SDS011;501;48.214;11.350;2022-09-09T06:02:11;3.30;;;1.83;;
1024;SDS011;501;48.214;11.350;2022-09-09T06:04:38;2.70;;;1.50;;
1024;SDS011;501;48.214;11.350;2022-09-09T06:07:04;2.47;;;1.80;;
1024;SDS011;501;48.214;11.350;2022-09-09T06:09:30;3.10;;;2.43;;
1024;SDS011;501;48.214;11.350;2022-09-09T06:11:55;2.80;;;1.60;;
1024;SDS011;501;48.214;11.350;2022-09-09T06:14:22;2.10;;;2.00;;
1024;SDS011;501;48.214;11.350;2022-09-09T06:16:48;3.70;;;2.33;;
1024;SDS011;501;48.214;11.350;2022-09-09T06:19:13;2.70;;;2.37;;
1024;SDS011;501;48.214;11.350;2022-09-09T06:21:39;3.37;;;2.37;;
1024;SDS011;501;48.214;11.350;2022-09-09T06:24:05;4.43;;;2.00;;
1024;SDS011;501;48.214;11.350;2022-09-09T06:26:36;2.30;;;2.10;;
1024;SDS011;501;48.214;11.350;2022-09-09T06:29:05;3.17;;;2.00;;
1024;SDS011;501;48.214;11.350;2022-09-09T06:31:32;3.53;;;2.00;;
1024;SDS011;501;48.214;11.350;2022-09-09T06:33:59;3.83;;;2.00;;
1024;SDS011;501;48.214;11.350;2022-09-09T06:38:53;4.53;;;2.40;;
1024;SDS011;501;48.214;11.350;2022-09-09T06:41:19;2.37;;;1.90;;
1024;SDS011;501;48.214;11.350;2022-09-09T06:43:46;3.37;;;2.80;;
1024;SDS011;501;48.214;11.350;2022-09-09T06:46:16;5.30;;;2.67;;
1024;SDS011;501;48.214;11.350;2022-09-09T06:48:43;2.87;;;2.00;;
1024;SDS011;501;48.214;11.350;2022-09-09T06:51:10;1.93;;;1.83;;
1024;SDS011;501;48.214;11.350;2022-09-09T06:53:37;3.43;;;2.17;;
1024;SDS011;501;48.214;11.350;2022-09-09T06:58:36;1.93;;;1.83;;
1024;SDS011;501;48.214;11.350;2022-09-09T07:01:05;3.50;;;2.70;;
1024;SDS011;501;48.214;11.350;2022-09-09T07:03:32;7.40;;;3.10;;
1024;SDS011;501;48.214;11.350;2022-09-09T07:05:58;2.23;;;2.03;;
1024;SDS011;501;48.214;11.350;2022-09-09T07:08:24;2.73;;;2.27;;
1024;SDS011;501;48.214;11.350;2022-09-09T07:10:51;2.90;;;2.33;;
1024;SDS011;501;48.214;11.350;2022-09-09T07:13:24;4.30;;;2.40;;
1024;SDS011;501;48.214;11.350;2022-09-09T07:15:50;4.27;;;2.30;;
1024;SDS011;501;48.214;11.350;2022-09-09T07:18:17;2.30;;;2.07;;
1024;SDS011;501;48.214;11.350;2022-09-09T07:20:43;2.10;;;2.00;;
1024;SDS011;501;48.214;11.350;2022-09-09T07:23:18;3.80;;;1.93;;
1024;SDS011;501;48.214;11.350;2022-09-09T07:25:46;3.40;;;1.97;;
1024;SDS011;501;48.214;11.350;2022-09-09T07:28:12;2.67;;;1.93;;
1024;SDS011;501;48.214;11.350;2022-09-09T07:30:38;2.73;;;2.10;;
1024;SDS011;501;48.214;11.350;2022-09-09T07:33:05;3.57;;;2.23;;
1024;SDS011;501;48.214;11.350;2022-09-09T07:35:31;2.67;;;1.70;;
1024;SDS011;501;48.214;11.350;2022-09-09T07:37:56;2.47;;;1.90;;
1024;SDS011;501;48.214;11.350;2022-09-09T07:40:23;2.70;;;2.00;;
1024;SDS011;501;48.214;11.350;2022-09-09T07:42:49;2.20;;;1.93;;
1024;SDS011;501;48.214;11.350;2022-09-09T07:45:15;3.13;;;1.93;;
1024;SDS011;501;48.214;11.350;2022-09-09T07:47:41;2.83;;;2.50;;
1024;SDS011;501;48.214;11.350;2022-09-09T07:50:07;7.00;;;2.30;;
1024;SDS011;501;48.214;11.350;2022-09-09T07:52:34;2.53;;;2.00;;
1024;SDS011;501;48.214;11.350;2022-09-09T07:55:00;4.67;;;2.30;;
1024;SDS011;501;48.214;11.350;2022-09-09T07:57:30;2.60;;;2.13;;
1024;SDS011;501;48.214;11.350;2022-09-09T07:59:56;2.90;;;2.43;;
1024;SDS011;501;48.214;11.350;2022-09-09T08:02:22;2.20;;;2.00;;
1024;SDS011;501;48.214;11.350;2022-09-09T08:04:49;3.13;;;2.00;;
1024;SDS011;501;48.214;11.350;2022-09-09T08:07:15;3.07;;;2.50;;
1024;SDS011;501;48.214;11.350;2022-09-09T08:09:41;2.90;;;2.03;;
1024;SDS011;501;48.214;11.350;2022-09-09T08:12:07;3.80;;;2.50;;
1024;SDS011;501;48.214;11.350;2022-09-09T08:14:33;2.50;;;2.30;;
1024;SDS011;501;48.214;11.350;2022-09-09T08:16:58;6.93;;;2.33;;
1024;SDS011;501;48.214;11.350;2022-09-09T08:19:24;8.90;;;3.50;;
1024;SDS011;501;48.214;11.350;2022-09-09T08:21:50;6.30;;;2.63;;
1024;SDS011;501;48.214;11.350;2022-09-09T08:24:16;2.97;;;2.67;;
1024;SDS011;501;48.214;11.350;2022-09-09T08:26:44;2.83;;;2.53;;
1024;SDS011;501;48.214;11.350;2022-09-09T08:29:14;3.70;;;2.43;;
1024;SDS011;501;48.214;11.350;2022-09-09T08:34:12;2.30;;;1.93;;
1024;SDS011;501;48.214;11.350;2022-09-09T08:36:38;2.53;;;2.20;;
1024;SDS011;501;48.214;11.350;2022-09-09T08:39:07;5.00;;;2.23;;
1024;SDS011;501;48.214;11.350;2022-09-09T08:47:13;3.00;;;2.07;;
1024;SDS011;501;48.214;11.350;2022-09-09T08:55:35;4.23;;;1.80;;
1024;SDS011;501;48.214;11.350;2022-09-09T08:58:30;8.30;;;3.20;;
1024;SDS011;501;48.214;11.350;2022-09-09T09:01:00;4.23;;;2.47;;
1024;SDS011;501;48.214;11.350;2022-09-09T09:03:43;3.57;;;2.40;;
1024;SDS011;501;48.214;11.350;2022-09-09T09:06:19;6.67;;;2.43;;
1024;SDS011;501;48.214;11.350;2022-09-09T09:09:16;4.50;;;2.53;;
1024;SDS011;501;48.214;11.350;2022-09-09T09:12:08;2.43;;;2.20;;
1024;SDS011;501;48.214;11.350;2022-09-09T09:14:41;2.20;;;2.00;;
1024;SDS011;501;48.214;11.350;2022-09-09T09:17:17;2.00;;;1.70;;
1024;SDS011;501;48.214;11.350;2022-09-09T09:19:44;2.50;;;1.53;;
1024;SDS011;501;48.214;11.350;2022-09-09T09:22:19;1.67;;;1.57;;
1024;SDS011;501;48.214;11.350;2022-09-09T09:25:11;3.50;;;1.80;;
1024;SDS011;501;48.214;11.350;2022-09-09T09:27:53;2.63;;;1.47;;
1024;SDS011;501;48.214;11.350;2022-09-09T09:30:38;2.00;;;1.73;;
1024;SDS011;501;48.214;11.350;2022-09-09T09:33:27;2.60;;;1.70;;
1024;SDS011;501;48.214;11.350;2022-09-09T09:35:59;2.20;;;2.00;;
1024;SDS011;501;48.214;11.350;2022-09-09T09:38:26;2.40;;;2.20;;
1024;SDS011;501;48.214;11.350;2022-09-09T09:40:56;1.80;;;1.50;;
1024;SDS011;501;48.214;11.350;2022-09-09T09:43:24;3.23;;;2.13;;
1024;SDS011;501;48.214;11.350;2022-09-09T09:45:52;5.97;;;1.77;;
1024;SDS011;501;48.214;11.350;2022-09-09T09:48:18;2.60;;;2.10;;
1024;SDS011;501;48.214;11.350;2022-09-09T09:50:51;2.13;;;2.03;;
1024;SDS011;501;48.214;11.350;2022-09-09T09:58:25;4.03;;;2.03;;
1024;SDS011;501;48.214;11.350;2022-09-09T10:00:56;1.40;;;1.30;;
1024;SDS011;501;48.214;11.350;2022-09-09T10:03:24;1.53;;;1.43;;
1024;SDS011;501;48.214;11.350;2022-09-09T10:05:54;1.70;;;1.53;;
1024;SDS011;501;48.214;11.350;2022-09-09T10:08:21;1.70;;;1.60;;
1024;SDS011;501;48.214;11.350;2022-09-09T10:24:00;4.10;;;1.37;;
1024;SDS011;501;48.214;11.350;2022-09-09T10:38:20;3.20;;;1.80;;
1024;SDS011;501;48.214;11.350;2022-09-09T10:41:19;4.40;;;1.70;;
1024;SDS011;501;48.214;11.350;2022-09-09T10:44:06;3.30;;;1.63;;
1024;SDS011;501;48.214;11.350;2022-09-09T10:54:59;1.43;;;1.27;;
1024;SDS011;501;48.214;11.350;2022-09-09T10:57:48;1.20;;;1.10;;
1024;SDS011;501;48.214;11.350;2022-09-09T11:00:20;0.90;;;0.90;;
1024;SDS011;501;48.214;11.350;2022-09-09T11:02:49;2.37;;;1.30;;
1024;SDS011;501;48.214;11.350;2022-09-09T11:05:26;2.57;;;1.27;;
1024;SDS011;501;48.214;11.350;2022-09-09T11:08:11;1.73;;;1.00;;
1024;SDS011;501;48.214;11.350;2022-09-09T11:10:49;1.90;;;0.90;;
1024;SDS011;501;48.214;11.350;2022-09-09T11:16:22;1.73;;;1.10;;
1024;SDS011;501;48.214;11.350;2022-09-09T11:19:28;2.80;;;1.10;;
1024;SDS011;501;48.214;11.350;2022-09-09T11:22:14;1.00;;;0.90;;
1024;SDS011;501;48.214;11.350;2022-09-09T11:24:41;2.73;;;1.20;;
1024;SDS011;501;48.214;11.350;2022-09-09T11:27:24;2.00;;;0.90;;
1024;SDS011;501;48.214;11.350;2022-09-09T11:32:54;1.57;;;1.17;;
1024;SDS011;501;48.214;11.350;2022-09-09T11:40:57;1.63;;;1.10;;
1024;SDS011;501;48.214;11.350;2022-09-09T11:46:03;1.97;;;1.50;;
1024;SDS011;501;48.214;11.350;2022-09-09T11:48:32;2.33;;;1.20;;
1024;SDS011;501;48.214;11.350;2022-09-09T11:51:07;2.07;;;1.27;;
1024;SDS011;501;48.214;11.350;2022-09-09T11:53:36;1.20;;;1.10;;
1024;SDS011;501;48.214;11.350;2022-09-09T11:56:22;2.47;;;1.00;;
1024;SDS011;501;48.214;11.350;2022-09-09T11:59:06;3.37;;;1.30;;
1024;SDS011;501;48.214;11.350;2022-09-09T12:01:45;2.70;;;0.67;;
1024;SDS011;501;48.214;11.350;2022-09-09T12:04:16;1.63;;;1.00;;
1024;SDS011;501;48.214;11.350;2022-09-09T12:06:52;1.23;;;1.00;;
1024;SDS011;501;48.214;11.350;2022-09-09T12:12:06;1.33;;;1.00;;
1024;SDS011;501;48.214;11.350;2022-09-09T12:14:38;1.23;;;0.70;;
1024;SDS011;501;48.214;11.350;2022-09-09T12:19:47;2.90;;;1.23;;
1024;SDS011;501;48.214;11.350;2022-09-09T12:22:20;2.60;;;0.77;;
1024;SDS011;501;48.214;11.350;2022-09-09T12:25:14;0.90;;;0.70;;
1024;SDS011;501;48.214;11.350;2022-09-09T12:27:58;2.63;;;1.20;;
1024;SDS011;501;48.214;11.350;2022-09-09T12:30:31;2.00;;;0.70;;
1024;SDS011;501;48.214;11.350;2022-09-09T12:33:17;2.13;;;0.93;;
1024;SDS011;501;48.214;11.350;2022-09-09T12:35:44;1.20;;;0.80;;
1024;SDS011;501;48.214;11.350;2022-09-09T12:38:15;1.70;;;1.10;;
1024;SDS011;501;48.214;11.350;2022-09-09T12:40:57;3.00;;;1.13;;
1024;SDS011;501;48.214;11.350;2022-09-09T12:43:24;1.73;;;1.10;;
1024;SDS011;501;48.214;11.350;2022-09-09T12:45:51;2.83;;;1.20;;
1024;SDS011;501;48.214;11.350;2022-09-09T12:48:34;3.53;;;1.40;;
1024;SDS011;501;48.214;11.350;2022-09-09T12:51:19;2.27;;;1.17;;
1024;SDS011;501;48.214;11.350;2022-09-09T12:53:50;3.30;;;1.43;;
1024;SDS011;501;48.214;11.350;2022-09-09T12:56:20;1.23;;;1.10;;
1024;SDS011;501;48.214;11.350;2022-09-09T12:58:50;0.70;;;0.70;;
1024;SDS011;501;48.214;11.350;2022-09-09T13:01:22;1.73;;;1.03;;
1024;SDS011;501;48.214;11.350;2022-09-09T13:03:50;3.90;;;0.80;;
1024;SDS011;501;48.214;11.350;2022-09-09T13:06:23;1.77;;;0.90;;
1024;SDS011;501;48.214;11.350;2022-09-09T13:08:54;3.07;;;1.40;;
1024;SDS011;501;48.214;11.350;2022-09-09T13:11:22;2.87;;;1.07;;
1024;SDS011;501;48.214;11.350;2022-09-09T13:13:54;4.80;;;1.33;;
1024;SDS011;501;48.214;11.350;2022-09-09T13:16:23;3.13;;;1.03;;
1024;SDS011;501;48.214;11.350;2022-09-09T13:18:55;3.13;;;1.20;;
1024;SDS011;501;48.214;11.350;2022-09-09T13:21:30;3.33;;;0.93;;
1024;SDS011;501;48.214;11.350;2022-09-09T13:23:59;1.53;;;0.93;;
1024;SDS011;501;48.214;11.350;2022-09-09T13:26:28;1.73;;;0.70;;
1024;SDS011;501;48.214;11.350;2022-09-09T13:28:55;1.13;;;0.90;;
1024;SDS011;501;48.214;11.350;2022-09-09T13:31:33;1.73;;;1.10;;
1024;SDS011;501;48.214;11.350;2022-09-09T13:34:11;1.90;;;0.70;;
1024;SDS011;501;48.214;11.350;2022-09-09T13:37:07;1.73;;;1.07;;
1024;SDS011;501;48.214;11.350;2022-09-09T13:39:51;5.53;;;1.00;;
1024;SDS011;501;48.214;11.350;2022-09-09T13:42:28;1.80;;;1.33;;
1024;SDS011;501;48.214;11.350;2022-09-09T13:44:56;1.63;;;0.90;;
1024;SDS011;501;48.214;11.350;2022-09-09T13:47:29;1.57;;;1.00;;
1024;SDS011;501;48.214;11.350;2022-09-09T13:49:57;0.80;;;0.80;;
1024;SDS011;501;48.214;11.350;2022-09-09T13:52:23;1.70;;;0.83;;
1024;SDS011;501;48.214;11.350;2022-09-09T13:54:49;0.83;;;0.83;;
1024;SDS011;501;48.214;11.350;2022-09-09T13:57:16;1.00;;;0.70;;
1024;SDS011;501;48.214;11.350;2022-09-09T13:59:45;0.60;;;0.60;;
1024;SDS011;501;48.214;11.350;2022-09-09T14:02:11;1.73;;;0.97;;
1024;SDS011;501;48.214;11.350;2022-09-09T14:04:37;1.27;;;0.80;;
1024;SDS011;501;48.214;11.350;2022-09-09T14:07:03;1.27;;;0.90;;
1024;SDS011;501;48.214;11.350;2022-09-09T14:09:28;3.03;;;0.70;;
1024;SDS011;501;48.214;11.350;2022-09-09T14:11:54;1.63;;;0.80;;
1024;SDS011;501;48.214;11.350;2022-09-09T14:14:22;1.00;;;0.67;;
1024;SDS011;501;48.214;11.350;2022-09-09T14:16:48;2.30;;;1.00;;
1024;SDS011;501;48.214;11.350;2022-09-09T14:19:13;1.83;;;0.73;;
1024;SDS011;501;48.214;11.350;2022-09-09T14:21:39;4.63;;;1.03;;
1024;SDS011;501;48.214;11.350;2022-09-09T14:24:05;3.57;;;1.20;;
1024;SDS011;501;48.214;11.350;2022-09-09T14:26:31;2.87;;;1.00;;
1024;SDS011;501;48.214;11.350;2022-09-09T14:28:57;3.00;;;1.00;;
1024;SDS011;501;48.214;11.350;2022-09-09T14:31:23;3.57;;;0.80;;
1024;SDS011;501;48.214;11.350;2022-09-09T14:33:49;2.07;;;0.90;;
1024;SDS011;501;48.214;11.350;2022-09-09T14:36:15;2.97;;;0.83;;
1024;SDS011;501;48.214;11.350;2022-09-09T14:38:41;1.90;;;1.00;;
1024;SDS011;501;48.214;11.350;2022-09-09T14:41:17;2.67;;;1.03;;
1024;SDS011;501;48.214;11.350;2022-09-09T14:43:44;1.13;;;0.87;;
1024;SDS011;501;48.214;11.350;2022-09-09T14:46:12;1.53;;;0.80;;
1024;SDS011;501;48.214;11.350;2022-09-09T14:48:39;1.90;;;0.80;;
1024;SDS011;501;48.214;11.350;2022-09-09T14:51:10;2.03;;;1.03;;
1024;SDS011;501;48.214;11.350;2022-09-09T14:53:38;3.47;;;0.97;;
1024;SDS011;501;48.214;11.350;2022-09-09T14:56:06;2.70;;;1.20;;
1024;SDS011;501;48.214;11.350;2022-09-09T14:58:33;0.90;;;0.70;;
1024;SDS011;501;48.214;11.350;2022-09-09T15:01:03;3.20;;;1.47;;
1024;SDS011;501;48.214;11.350;2022-09-09T15:03:30;2.00;;;0.83;;
1024;SDS011;501;48.214;11.350;2022-09-09T15:05:56;1.97;;;0.60;;
1024;SDS011;501;48.214;11.350;2022-09-09T15:08:23;1.13;;;0.90;;
1024;SDS011;501;48.214;11.350;2022-09-09T15:10:49;2.20;;;0.80;;
1024;SDS011;501;48.214;11.350;2022-09-09T15:13:15;2.60;;;0.90;;
1024;SDS011;501;48.214;11.350;2022-09-09T15:15:42;1.13;;;0.80;;
1024;SDS011;501;48.214;11.350;2022-09-09T15:18:08;1.20;;;0.70;;
1024;SDS011;501;48.214;11.350;2022-09-09T15:20:34;0.53;;;0.53;;
1024;SDS011;501;48.214;11.350;2022-09-09T15:23:02;3.47;;;1.03;;
1024;SDS011;501;48.214;11.350;2022-09-09T15:25:27;3.90;;;0.90;;
1024;SDS011;501;48.214;11.350;2022-09-09T15:27:53;0.80;;;0.80;;
1024;SDS011;501;48.214;11.350;2022-09-09T15:30:19;3.80;;;1.10;;
1024;SDS011;501;48.214;11.350;2022-09-09T15:32:44;2.27;;;0.57;;
1024;SDS011;501;48.214;11.350;2022-09-09T15:35:10;3.03;;;0.60;;
1024;SDS011;501;48.214;11.350;2022-09-09T15:37:35;2.00;;;0.87;;
1024;SDS011;501;48.214;11.350;2022-09-09T15:40:01;1.67;;;0.83;;
1024;SDS011;501;48.214;11.350;2022-09-09T15:42:27;1.30;;;0.90;;
1024;SDS011;501;48.214;11.350;2022-09-09T15:44:52;0.97;;;0.53;;
1024;SDS011;501;48.214;11.350;2022-09-09T15:47:18;2.13;;;0.77;;
1024;SDS011;501;48.214;11.350;2022-09-09T15:49:43;2.23;;;0.70;;
1024;SDS011;501;48.214;11.350;2022-09-09T15:52:09;1.47;;;0.80;;
1024;SDS011;501;48.214;11.350;2022-09-09T15:54:36;1.03;;;0.70;;
1024;SDS011;501;48.214;11.350;2022-09-09T15:57:06;1.50;;;0.93;;
1024;SDS011;501;48.214;11.350;2022-09-09T15:59:33;1.23;;;0.70;;
1024;SDS011;501;48.214;11.350;2022-09-09T16:01:59;1.23;;;0.60;;
1024;SDS011;501;48.214;11.350;2022-09-09T16:04:26;2.20;;;1.30;;
1024;SDS011;501;48.214;11.350;2022-09-09T16:06:53;1.03;;;0.60;;
1024;SDS011;501;48.214;11.350;2022-09-09T16:09:20;1.10;;;0.80;;
1024;SDS011;501;48.214;11.350;2022-09-09T16:11:46;3.33;;;0.87;;
1024;SDS011;501;48.214;11.350;2022-09-09T16:14:13;2.73;;;1.13;;
1024;SDS011;501;48.214;11.350;2022-09-09T16:16:40;1.77;;;0.80;;
1024;SDS011;501;48.214;11.350;2022-09-09T16:19:07;1.53;;;0.90;;
1024;SDS011;501;48.214;11.350;2022-09-09T16:21:39;0.97;;;0.70;;
1024;SDS011;501;48.214;11.350;2022-09-09T16:24:07;0.83;;;0.63;;
1024;SDS011;501;48.214;11.350;2022-09-09T16:26:35;2.77;;;1.00;;
1024;SDS011;501;48.214;11.350;2022-09-09T16:29:02;1.00;;;0.90;;
1024;SDS011;501;48.214;11.350;2022-09-09T16:31:28;2.63;;;1.10;;
1024;SDS011;501;48.214;11.350;2022-09-09T16:33:55;1.97;;;0.83;;
1024;SDS011;501;48.214;11.350;2022-09-09T16:36:22;1.80;;;0.90;;
1024;SDS011;501;48.214;11.350;2022-09-09T16:38:59;1.23;;;0.80;;
1024;SDS011;501;48.214;11.350;2022-09-09T16:41:27;0.70;;;0.70;;
1024;SDS011;501;48.214;11.350;2022-09-09T16:44:01;1.10;;;1.00;;
1024;SDS011;501;48.214;11.350;2022-09-09T16:46:34;1.33;;;1.20;;
1024;SDS011;501;48.214;11.350;2022-09-09T16:49:06;1.80;;;0.87;;
1024;SDS011;501;48.214;11.350;2022-09-09T16:51:37;1.10;;;1.00;;
1024;SDS011;501;48.214;11.350;2022-09-09T16:54:05;1.70;;;1.00;;
1024;SDS011;501;48.214;11.350;2022-09-09T16:56:32;1.17;;;0.90;;
1024;SDS011;501;48.214;11.350;2022-09-09T16:59:02;1.20;;;0.90;;
1024;SDS011;501;48.214;11.350;2022-09-09T17:01:34;4.23;;;1.10;;
1024;SDS011;501;48.214;11.350;2022-09-09T17:04:06;0.97;;;0.70;;
1024;SDS011;501;48.214;11.350;2022-09-09T17:06:33;0.73;;;0.70;;
1024;SDS011;501;48.214;11.350;2022-09-09T17:09:00;1.63;;;0.90;;
1024;SDS011;501;48.214;11.350;2022-09-09T17:11:27;2.60;;;1.10;;
1024;SDS011;501;48.214;11.350;2022-09-09T17:13:54;1.13;;;0.80;;
1024;SDS011;501;48.214;11.350;2022-09-09T17:16:21;1.03;;;0.80;;
1024;SDS011;501;48.214;11.350;2022-09-09T17:18:49;2.60;;;1.00;;
1024;SDS011;501;48.214;11.350;2022-09-09T17:21:17;3.03;;;1.37;;
1024;SDS011;501;48.214;11.350;2022-09-09T17:23:44;2.27;;;0.87;;
1024;SDS011;501;48.214;11.350;2022-09-09T17:26:11;3.43;;;1.13;;
1024;SDS011;501;48.214;11.350;2022-09-09T17:28:39;2.07;;;0.90;;
1024;SDS011;501;48.214;11.350;2022-09-09T17:31:06;3.40;;;1.00;;
1024;SDS011;501;48.214;11.350;2022-09-09T17:33:33;1.63;;;1.00;;
1024;SDS011;501;48.214;11.350;2022-09-09T17:36:02;3.63;;;0.80;;